sensor_id;sensor_type;location;lat;lon;timestamp;P1;durP1;ratioP1;P2;durP2;ratioP2
76795;SDS011;65745;50.278;18.192;2024-02-21T00:02:06;14.10;;;6.70;;
76795;SDS011;65745;50.278;18.192;2024-02-21T00:04:38;10.60;;;5.90;;
76795;SDS011;65745;50.278;18.192;2024-02-21T00:07:13;12.50;;;6.60;;
76795;SDS011;65745;50.278;18.192;2024-02-21T00:09:46;10.20;;;5.80;;
76795;SDS011;65745;50.278;18.192;2024-02-21T00:12:18;9.80;;;5.70;;
76795;SDS011;65745;50.278;18.192;2024-02-21T00:14:50;11.20;;;5.80;;
76795;SDS011;65745;50.278;18.192;2024-02-21T00:17:22;11.80;;;5.70;;
76795;SDS011;65745;50.278;18.192;2024-02-21T00:19:56;10.80;;;5.90;;
76795;SDS011;65745;50.278;18.192;2024-02-21T00:22:28;11.30;;;6.10;;
76795;SDS011;65745;50.278;18.192;2024-02-21T00:25:03;8.60;;;5.40;;
76795;SDS011;65745;50.278;18.192;2024-02-21T00:27:36;10.80;;;5.10;;
76795;SDS011;65745;50.278;18.192;2024-02-21T00:30:09;14.60;;;5.50;;
76795;SDS011;65745;50.278;18.192;2024-02-21T00:32:42;11.40;;;6.00;;
76795;SDS011;65745;50.278;18.192;2024-02-21T00:35:14;12.10;;;5.50;;
76795;SDS011;65745;50.278;18.192;2024-02-21T00:37:47;8.10;;;4.40;;
76795;SDS011;65745;50.278;18.192;2024-02-21T00:40:19;11.00;;;5.40;;
76795;SDS011;65745;50.278;18.192;2024-02-21T00:42:52;10.40;;;4.90;;
76795;SDS011;65745;50.278;18.192;2024-02-21T00:45:24;8.40;;;4.80;;
76795;SDS011;65745;50.278;18.192;2024-02-21T00:47:57;10.10;;;5.10;;
76795;SDS011;65745;50.278;18.192;2024-02-21T00:50:29;10.10;;;4.80;;
76795;SDS011;65745;50.278;18.192;2024-02-21T00:53:01;11.00;;;5.30;;
76795;SDS011;65745;50.278;18.192;2024-02-21T00:55:34;6.30;;;4.30;;
76795;SDS011;65745;50.278;18.192;2024-02-21T00:58:06;10.90;;;5.00;;
76795;SDS011;65745;50.278;18.192;2024-02-21T01:00:38;10.40;;;5.50;;
76795;SDS011;65745;50.278;18.192;2024-02-21T01:03:10;10.10;;;5.40;;
76795;SDS011;65745;50.278;18.192;2024-02-21T01:05:43;9.10;;;4.80;;
76795;SDS011;65745;50.278;18.192;2024-02-21T01:08:15;8.00;;;4.30;;
76795;SDS011;65745;50.278;18.192;2024-02-21T01:10:48;9.60;;;4.60;;
76795;SDS011;65745;50.278;18.192;2024-02-21T01:13:20;10.90;;;5.20;;
76795;SDS011;65745;50.278;18.192;2024-02-21T01:15:52;9.50;;;5.10;;
76795;SDS011;65745;50.278;18.192;2024-02-21T01:18:24;9.90;;;4.70;;
76795;SDS011;65745;50.278;18.192;2024-02-21T01:20:57;9.60;;;4.70;;
76795;SDS011;65745;50.278;18.192;2024-02-21T01:23:29;8.40;;;4.60;;
76795;SDS011;65745;50.278;18.192;2024-02-21T01:26:01;8.30;;;4.00;;
76795;SDS011;65745;50.278;18.192;2024-02-21T01:28:34;9.10;;;5.10;;
76795;SDS011;65745;50.278;18.192;2024-02-21T01:31:07;10.80;;;5.50;;
76795;SDS011;65745;50.278;18.192;2024-02-21T01:33:39;11.50;;;6.20;;
76795;SDS011;65745;50.278;18.192;2024-02-21T01:36:12;11.30;;;5.10;;
76795;SDS011;65745;50.278;18.192;2024-02-21T01:38:44;13.10;;;6.00;;
76795;SDS011;65745;50.278;18.192;2024-02-21T01:41:16;12.30;;;6.10;;
76795;SDS011;65745;50.278;18.192;2024-02-21T01:43:48;15.70;;;7.00;;
76795;SDS011;65745;50.278;18.192;2024-02-21T01:46:21;11.70;;;5.90;;
76795;SDS011;65745;50.278;18.192;2024-02-21T01:48:57;12.00;;;6.30;;
76795;SDS011;65745;50.278;18.192;2024-02-21T01:51:30;13.40;;;6.80;;
76795;SDS011;65745;50.278;18.192;2024-02-21T01:54:03;10.70;;;5.70;;
76795;SDS011;65745;50.278;18.192;2024-02-21T01:56:36;9.80;;;5.40;;
76795;SDS011;65745;50.278;18.192;2024-02-21T01:59:08;10.30;;;6.50;;
76795;SDS011;65745;50.278;18.192;2024-02-21T02:01:42;11.90;;;6.20;;
76795;SDS011;65745;50.278;18.192;2024-02-21T02:04:15;11.00;;;5.00;;
76795;SDS011;65745;50.278;18.192;2024-02-21T02:06:47;7.60;;;4.50;;
76795;SDS011;65745;50.278;18.192;2024-02-21T02:09:22;9.90;;;5.60;;
76795;SDS011;65745;50.278;18.192;2024-02-21T02:11:54;9.70;;;5.30;;
76795;SDS011;65745;50.278;18.192;2024-02-21T02:14:27;11.30;;;5.80;;
76795;SDS011;65745;50.278;18.192;2024-02-21T02:16:59;9.30;;;5.10;;
76795;SDS011;65745;50.278;18.192;2024-02-21T02:19:32;12.70;;;5.90;;
76795;SDS011;65745;50.278;18.192;2024-02-21T02:22:06;15.20;;;5.80;;
76795;SDS011;65745;50.278;18.192;2024-02-21T02:24:47;11.20;;;5.20;;
76795;SDS011;65745;50.278;18.192;2024-02-21T02:27:19;7.90;;;5.00;;
76795;SDS011;65745;50.278;18.192;2024-02-21T02:29:52;12.60;;;5.20;;
76795;SDS011;65745;50.278;18.192;2024-02-21T02:32:24;9.30;;;5.30;;
76795;SDS011;65745;50.278;18.192;2024-02-21T02:34:56;10.40;;;5.00;;
76795;SDS011;65745;50.278;18.192;2024-02-21T02:37:28;12.10;;;6.10;;
76795;SDS011;65745;50.278;18.192;2024-02-21T02:40:01;12.70;;;6.70;;
76795;SDS011;65745;50.278;18.192;2024-02-21T02:42:33;8.10;;;5.40;;
76795;SDS011;65745;50.278;18.192;2024-02-21T02:45:06;13.30;;;6.10;;
76795;SDS011;65745;50.278;18.192;2024-02-21T02:47:40;9.00;;;5.70;;
76795;SDS011;65745;50.278;18.192;2024-02-21T02:50:14;8.90;;;5.70;;
76795;SDS011;65745;50.278;18.192;2024-02-21T02:52:47;10.60;;;6.00;;
76795;SDS011;65745;50.278;18.192;2024-02-21T02:55:20;10.00;;;7.30;;
76795;SDS011;65745;50.278;18.192;2024-02-21T02:57:52;10.70;;;5.80;;
76795;SDS011;65745;50.278;18.192;2024-02-21T03:00:25;8.90;;;5.30;;
76795;SDS011;65745;50.278;18.192;2024-02-21T03:02:57;8.50;;;5.30;;
76795;SDS011;65745;50.278;18.192;2024-02-21T03:05:29;7.50;;;4.90;;
76795;SDS011;65745;50.278;18.192;2024-02-21T03:08:02;8.60;;;5.70;;
76795;SDS011;65745;50.278;18.192;2024-02-21T03:10:36;9.20;;;5.10;;
76795;SDS011;65745;50.278;18.192;2024-02-21T03:13:08;9.40;;;5.40;;
76795;SDS011;65745;50.278;18.192;2024-02-21T03:15:41;10.20;;;5.20;;
76795;SDS011;65745;50.278;18.192;2024-02-21T03:18:13;7.70;;;5.30;;
76795;SDS011;65745;50.278;18.192;2024-02-21T03:20:45;8.90;;;4.80;;
76795;SDS011;65745;50.278;18.192;2024-02-21T03:23:18;7.00;;;4.90;;
76795;SDS011;65745;50.278;18.192;2024-02-21T03:25:50;9.70;;;5.20;;
76795;SDS011;65745;50.278;18.192;2024-02-21T03:28:22;12.40;;;5.60;;
76795;SDS011;65745;50.278;18.192;2024-02-21T03:30:54;8.20;;;5.10;;
76795;SDS011;65745;50.278;18.192;2024-02-21T03:33:26;10.40;;;6.10;;
76795;SDS011;65745;50.278;18.192;2024-02-21T03:35:59;8.50;;;5.60;;
76795;SDS011;65745;50.278;18.192;2024-02-21T03:38:31;8.50;;;4.70;;
76795;SDS011;65745;50.278;18.192;2024-02-21T03:41:03;7.90;;;5.10;;
76795;SDS011;65745;50.278;18.192;2024-02-21T03:43:37;8.60;;;4.50;;
76795;SDS011;65745;50.278;18.192;2024-02-21T03:46:09;8.80;;;5.50;;
76795;SDS011;65745;50.278;18.192;2024-02-21T03:48:41;8.70;;;4.80;;
76795;SDS011;65745;50.278;18.192;2024-02-21T03:51:14;9.00;;;5.30;;
76795;SDS011;65745;50.278;18.192;2024-02-21T03:53:46;8.90;;;5.60;;
76795;SDS011;65745;50.278;18.192;2024-02-21T03:56:18;7.30;;;4.10;;
76795;SDS011;65745;50.278;18.192;2024-02-21T03:58:51;6.50;;;4.30;;
76795;SDS011;65745;50.278;18.192;2024-02-21T04:01:23;8.40;;;4.90;;
76795;SDS011;65745;50.278;18.192;2024-02-21T04:03:55;8.00;;;4.20;;
76795;SDS011;65745;50.278;18.192;2024-02-21T04:06:28;8.00;;;4.60;;
76795;SDS011;65745;50.278;18.192;2024-02-21T04:09:00;8.40;;;4.40;;
76795;SDS011;65745;50.278;18.192;2024-02-21T04:11:32;5.60;;;4.10;;
76795;SDS011;65745;50.278;18.192;2024-02-21T04:14:04;7.20;;;3.80;;
76795;SDS011;65745;50.278;18.192;2024-02-21T04:16:37;9.00;;;4.30;;
76795;SDS011;65745;50.278;18.192;2024-02-21T04:19:09;6.60;;;4.70;;
76795;SDS011;65745;50.278;18.192;2024-02-21T04:21:42;9.80;;;4.80;;
76795;SDS011;65745;50.278;18.192;2024-02-21T04:24:14;6.60;;;3.90;;
76795;SDS011;65745;50.278;18.192;2024-02-21T04:26:46;6.90;;;4.20;;
76795;SDS011;65745;50.278;18.192;2024-02-21T04:29:18;11.20;;;5.00;;
76795;SDS011;65745;50.278;18.192;2024-02-21T04:31:51;6.40;;;4.70;;
76795;SDS011;65745;50.278;18.192;2024-02-21T04:34:23;6.20;;;3.80;;
76795;SDS011;65745;50.278;18.192;2024-02-21T04:36:56;4.70;;;4.20;;
76795;SDS011;65745;50.278;18.192;2024-02-21T04:39:28;6.30;;;4.20;;
76795;SDS011;65745;50.278;18.192;2024-02-21T04:42:00;7.60;;;5.10;;
76795;SDS011;65745;50.278;18.192;2024-02-21T04:44:32;7.80;;;4.80;;
76795;SDS011;65745;50.278;18.192;2024-02-21T04:47:05;10.30;;;5.90;;
76795;SDS011;65745;50.278;18.192;2024-02-21T04:49:37;9.20;;;5.40;;
76795;SDS011;65745;50.278;18.192;2024-02-21T04:52:10;7.00;;;4.60;;
76795;SDS011;65745;50.278;18.192;2024-02-21T04:54:42;8.20;;;4.80;;
76795;SDS011;65745;50.278;18.192;2024-02-21T04:57:14;8.50;;;5.50;;
76795;SDS011;65745;50.278;18.192;2024-02-21T04:59:47;7.20;;;4.30;;
76795;SDS011;65745;50.278;18.192;2024-02-21T05:02:19;6.70;;;5.20;;
76795;SDS011;65745;50.278;18.192;2024-02-21T05:04:53;12.30;;;7.10;;
76795;SDS011;65745;50.278;18.192;2024-02-21T05:07:26;10.10;;;7.10;;
76795;SDS011;65745;50.278;18.192;2024-02-21T05:09:58;12.60;;;8.20;;
76795;SDS011;65745;50.278;18.192;2024-02-21T05:12:30;12.00;;;8.20;;
76795;SDS011;65745;50.278;18.192;2024-02-21T05:15:03;12.60;;;8.20;;
76795;SDS011;65745;50.278;18.192;2024-02-21T05:17:36;12.70;;;7.90;;
76795;SDS011;65745;50.278;18.192;2024-02-21T05:20:10;9.90;;;7.20;;
76795;SDS011;65745;50.278;18.192;2024-02-21T05:22:42;13.70;;;8.40;;
76795;SDS011;65745;50.278;18.192;2024-02-21T05:25:15;11.20;;;6.90;;
76795;SDS011;65745;50.278;18.192;2024-02-21T05:27:47;9.70;;;6.10;;
76795;SDS011;65745;50.278;18.192;2024-02-21T05:30:22;11.00;;;6.90;;
76795;SDS011;65745;50.278;18.192;2024-02-21T05:32:54;11.50;;;7.20;;
76795;SDS011;65745;50.278;18.192;2024-02-21T05:35:27;10.00;;;6.20;;
76795;SDS011;65745;50.278;18.192;2024-02-21T05:37:59;12.40;;;7.50;;
76795;SDS011;65745;50.278;18.192;2024-02-21T05:40:36;8.50;;;6.70;;
76795;SDS011;65745;50.278;18.192;2024-02-21T05:43:08;10.60;;;6.90;;
76795;SDS011;65745;50.278;18.192;2024-02-21T05:45:40;11.70;;;6.30;;
76795;SDS011;65745;50.278;18.192;2024-02-21T05:48:12;11.50;;;6.70;;
76795;SDS011;65745;50.278;18.192;2024-02-21T05:50:45;9.10;;;6.00;;
76795;SDS011;65745;50.278;18.192;2024-02-21T05:53:17;9.40;;;6.70;;
76795;SDS011;65745;50.278;18.192;2024-02-21T05:55:49;10.60;;;6.90;;
76795;SDS011;65745;50.278;18.192;2024-02-21T05:58:22;12.40;;;6.90;;
76795;SDS011;65745;50.278;18.192;2024-02-21T06:00:54;14.10;;;8.00;;
76795;SDS011;65745;50.278;18.192;2024-02-21T06:03:26;13.70;;;7.60;;
76795;SDS011;65745;50.278;18.192;2024-02-21T06:06:00;10.60;;;7.10;;
76795;SDS011;65745;50.278;18.192;2024-02-21T06:08:34;10.70;;;7.70;;
76795;SDS011;65745;50.278;18.192;2024-02-21T06:11:06;12.00;;;7.70;;
76795;SDS011;65745;50.278;18.192;2024-02-21T06:13:39;10.90;;;7.20;;
76795;SDS011;65745;50.278;18.192;2024-02-21T06:16:11;13.40;;;8.40;;
76795;SDS011;65745;50.278;18.192;2024-02-21T06:18:43;9.90;;;7.40;;
76795;SDS011;65745;50.278;18.192;2024-02-21T06:21:15;13.90;;;7.60;;
76795;SDS011;65745;50.278;18.192;2024-02-21T06:23:48;15.80;;;8.50;;
76795;SDS011;65745;50.278;18.192;2024-02-21T06:26:20;10.80;;;8.10;;
76795;SDS011;65745;50.278;18.192;2024-02-21T06:28:52;20.40;;;11.80;;
76795;SDS011;65745;50.278;18.192;2024-02-21T06:31:24;15.00;;;9.80;;
76795;SDS011;65745;50.278;18.192;2024-02-21T06:33:57;16.00;;;9.90;;
76795;SDS011;65745;50.278;18.192;2024-02-21T06:36:29;14.00;;;9.50;;
76795;SDS011;65745;50.278;18.192;2024-02-21T06:39:02;14.50;;;9.40;;
76795;SDS011;65745;50.278;18.192;2024-02-21T06:41:37;14.80;;;9.60;;
76795;SDS011;65745;50.278;18.192;2024-02-21T06:44:10;12.70;;;8.60;;
76795;SDS011;65745;50.278;18.192;2024-02-21T06:46:42;15.20;;;9.30;;
76795;SDS011;65745;50.278;18.192;2024-02-21T06:49:14;12.10;;;8.20;;
76795;SDS011;65745;50.278;18.192;2024-02-21T06:51:47;15.70;;;10.00;;
76795;SDS011;65745;50.278;18.192;2024-02-21T06:54:19;16.00;;;10.10;;
76795;SDS011;65745;50.278;18.192;2024-02-21T06:56:51;16.40;;;10.40;;
76795;SDS011;65745;50.278;18.192;2024-02-21T06:59:23;16.60;;;10.30;;
76795;SDS011;65745;50.278;18.192;2024-02-21T07:01:55;15.10;;;10.20;;
76795;SDS011;65745;50.278;18.192;2024-02-21T07:04:29;13.60;;;10.40;;
76795;SDS011;65745;50.278;18.192;2024-02-21T07:07:01;13.40;;;9.00;;
76795;SDS011;65745;50.278;18.192;2024-02-21T07:09:34;15.10;;;11.00;;
76795;SDS011;65745;50.278;18.192;2024-02-21T07:12:08;15.60;;;9.50;;
76795;SDS011;65745;50.278;18.192;2024-02-21T07:14:41;16.80;;;10.80;;
76795;SDS011;65745;50.278;18.192;2024-02-21T07:17:13;12.00;;;9.50;;
76795;SDS011;65745;50.278;18.192;2024-02-21T07:19:45;20.10;;;11.50;;
76795;SDS011;65745;50.278;18.192;2024-02-21T07:22:17;31.60;;;16.10;;
76795;SDS011;65745;50.278;18.192;2024-02-21T07:24:50;19.30;;;12.10;;
76795;SDS011;65745;50.278;18.192;2024-02-21T07:27:22;14.50;;;10.70;;
76795;SDS011;65745;50.278;18.192;2024-02-21T07:29:57;17.00;;;11.00;;
76795;SDS011;65745;50.278;18.192;2024-02-21T07:32:29;29.50;;;16.30;;
76795;SDS011;65745;50.278;18.192;2024-02-21T07:35:02;18.50;;;11.60;;
76795;SDS011;65745;50.278;18.192;2024-02-21T07:37:40;20.20;;;11.00;;
76795;SDS011;65745;50.278;18.192;2024-02-21T07:40:13;16.10;;;10.10;;
76795;SDS011;65745;50.278;18.192;2024-02-21T07:42:47;20.50;;;10.80;;
76795;SDS011;65745;50.278;18.192;2024-02-21T07:45:20;18.80;;;10.30;;
76795;SDS011;65745;50.278;18.192;2024-02-21T07:47:53;13.50;;;9.30;;
76795;SDS011;65745;50.278;18.192;2024-02-21T07:50:25;18.60;;;10.90;;
76795;SDS011;65745;50.278;18.192;2024-02-21T07:52:58;14.20;;;8.50;;
76795;SDS011;65745;50.278;18.192;2024-02-21T07:55:30;16.10;;;9.60;;
76795;SDS011;65745;50.278;18.192;2024-02-21T07:58:03;13.60;;;9.80;;
76795;SDS011;65745;50.278;18.192;2024-02-21T08:00:36;19.20;;;10.50;;
76795;SDS011;65745;50.278;18.192;2024-02-21T08:03:08;15.20;;;9.10;;
76795;SDS011;65745;50.278;18.192;2024-02-21T08:05:40;16.60;;;9.70;;
76795;SDS011;65745;50.278;18.192;2024-02-21T08:08:13;13.40;;;8.10;;
76795;SDS011;65745;50.278;18.192;2024-02-21T08:13:19;14.60;;;8.40;;
76795;SDS011;65745;50.278;18.192;2024-02-21T08:15:52;11.40;;;7.90;;
76795;SDS011;65745;50.278;18.192;2024-02-21T08:18:25;19.00;;;9.80;;
76795;SDS011;65745;50.278;18.192;2024-02-21T08:20:57;15.70;;;10.20;;
76795;SDS011;65745;50.278;18.192;2024-02-21T08:23:29;15.00;;;8.70;;
76795;SDS011;65745;50.278;18.192;2024-02-21T08:26:04;12.70;;;8.90;;
76795;SDS011;65745;50.278;18.192;2024-02-21T08:28:36;14.50;;;8.90;;
76795;SDS011;65745;50.278;18.192;2024-02-21T08:31:09;17.10;;;8.80;;
76795;SDS011;65745;50.278;18.192;2024-02-21T08:33:41;17.60;;;9.50;;
76795;SDS011;65745;50.278;18.192;2024-02-21T08:36:18;18.00;;;10.90;;
76795;SDS011;65745;50.278;18.192;2024-02-21T08:38:50;16.70;;;8.90;;
76795;SDS011;65745;50.278;18.192;2024-02-21T08:41:23;14.30;;;8.50;;
76795;SDS011;65745;50.278;18.192;2024-02-21T08:44:15;12.90;;;7.40;;
76795;SDS011;65745;50.278;18.192;2024-02-21T08:46:47;10.50;;;7.20;;
76795;SDS011;65745;50.278;18.192;2024-02-21T08:49:20;11.10;;;6.30;;
76795;SDS011;65745;50.278;18.192;2024-02-21T08:51:54;11.10;;;6.70;;
76795;SDS011;65745;50.278;18.192;2024-02-21T08:54:27;14.80;;;7.50;;
76795;SDS011;65745;50.278;18.192;2024-02-21T08:56:59;11.90;;;7.50;;
76795;SDS011;65745;50.278;18.192;2024-02-21T08:59:33;10.40;;;6.90;;
76795;SDS011;65745;50.278;18.192;2024-02-21T09:02:05;10.60;;;6.60;;
76795;SDS011;65745;50.278;18.192;2024-02-21T09:04:38;9.10;;;5.50;;
76795;SDS011;65745;50.278;18.192;2024-02-21T09:07:10;7.80;;;5.60;;
76795;SDS011;65745;50.278;18.192;2024-02-21T09:09:43;11.10;;;7.80;;
76795;SDS011;65745;50.278;18.192;2024-02-21T09:12:15;11.90;;;6.60;;
76795;SDS011;65745;50.278;18.192;2024-02-21T09:14:47;11.40;;;7.30;;
76795;SDS011;65745;50.278;18.192;2024-02-21T09:17:19;11.50;;;6.90;;
76795;SDS011;65745;50.278;18.192;2024-02-21T09:19:52;11.30;;;6.80;;
76795;SDS011;65745;50.278;18.192;2024-02-21T09:22:25;10.90;;;6.10;;
76795;SDS011;65745;50.278;18.192;2024-02-21T09:24:57;10.90;;;6.00;;
76795;SDS011;65745;50.278;18.192;2024-02-21T09:27:29;11.50;;;6.00;;
76795;SDS011;65745;50.278;18.192;2024-02-21T09:30:02;9.40;;;7.60;;
76795;SDS011;65745;50.278;18.192;2024-02-21T09:32:35;11.20;;;6.80;;
76795;SDS011;65745;50.278;18.192;2024-02-21T09:35:08;9.10;;;5.60;;
76795;SDS011;65745;50.278;18.192;2024-02-21T09:37:42;12.10;;;5.60;;
76795;SDS011;65745;50.278;18.192;2024-02-21T09:40:16;10.20;;;5.90;;
76795;SDS011;65745;50.278;18.192;2024-02-21T09:42:49;10.50;;;5.80;;
76795;SDS011;65745;50.278;18.192;2024-02-21T09:45:28;10.50;;;6.80;;
76795;SDS011;65745;50.278;18.192;2024-02-21T09:48:03;9.00;;;6.40;;
76795;SDS011;65745;50.278;18.192;2024-02-21T09:50:53;12.40;;;5.40;;
76795;SDS011;65745;50.278;18.192;2024-02-21T09:53:27;11.90;;;6.20;;
76795;SDS011;65745;50.278;18.192;2024-02-21T09:56:01;11.50;;;6.20;;
76795;SDS011;65745;50.278;18.192;2024-02-21T09:58:34;12.00;;;6.40;;
76795;SDS011;65745;50.278;18.192;2024-02-21T10:01:07;10.20;;;6.10;;
76795;SDS011;65745;50.278;18.192;2024-02-21T10:03:57;10.00;;;4.90;;
76795;SDS011;65745;50.278;18.192;2024-02-21T10:06:32;10.10;;;5.70;;
76795;SDS011;65745;50.278;18.192;2024-02-21T10:09:07;10.30;;;5.60;;
76795;SDS011;65745;50.278;18.192;2024-02-21T10:11:39;11.60;;;6.70;;
76795;SDS011;65745;50.278;18.192;2024-02-21T10:14:11;13.40;;;8.00;;
76795;SDS011;65745;50.278;18.192;2024-02-21T10:16:45;10.60;;;6.30;;
76795;SDS011;65745;50.278;18.192;2024-02-21T10:19:18;10.30;;;6.30;;
76795;SDS011;65745;50.278;18.192;2024-02-21T10:22:04;11.60;;;6.10;;
76795;SDS011;65745;50.278;18.192;2024-02-21T10:24:37;8.50;;;5.30;;
76795;SDS011;65745;50.278;18.192;2024-02-21T10:27:11;10.70;;;5.90;;
76795;SDS011;65745;50.278;18.192;2024-02-21T10:29:48;12.50;;;4.90;;
76795;SDS011;65745;50.278;18.192;2024-02-21T10:32:21;7.00;;;4.40;;
76795;SDS011;65745;50.278;18.192;2024-02-21T10:35:02;7.10;;;4.50;;
76795;SDS011;65745;50.278;18.192;2024-02-21T10:37:35;9.30;;;4.70;;
76795;SDS011;65745;50.278;18.192;2024-02-21T10:40:08;10.30;;;5.70;;
76795;SDS011;65745;50.278;18.192;2024-02-21T10:42:41;9.30;;;5.30;;
76795;SDS011;65745;50.278;18.192;2024-02-21T10:45:14;10.70;;;4.70;;
76795;SDS011;65745;50.278;18.192;2024-02-21T10:47:48;8.30;;;4.90;;
76795;SDS011;65745;50.278;18.192;2024-02-21T10:50:26;10.40;;;4.80;;
76795;SDS011;65745;50.278;18.192;2024-02-21T10:53:05;11.60;;;4.90;;
76795;SDS011;65745;50.278;18.192;2024-02-21T10:55:46;7.30;;;4.60;;
76795;SDS011;65745;50.278;18.192;2024-02-21T10:58:26;6.70;;;4.20;;
76795;SDS011;65745;50.278;18.192;2024-02-21T11:01:01;8.30;;;4.80;;
76795;SDS011;65745;50.278;18.192;2024-02-21T11:03:37;9.00;;;4.60;;
76795;SDS011;65745;50.278;18.192;2024-02-21T11:06:10;10.90;;;5.70;;
76795;SDS011;65745;50.278;18.192;2024-02-21T11:08:44;9.60;;;5.10;;
76795;SDS011;65745;50.278;18.192;2024-02-21T11:11:17;12.40;;;7.50;;
76795;SDS011;65745;50.278;18.192;2024-02-21T11:14:06;8.30;;;5.10;;
76795;SDS011;65745;50.278;18.192;2024-02-21T11:16:40;9.40;;;4.60;;
76795;SDS011;65745;50.278;18.192;2024-02-21T11:19:20;7.60;;;4.90;;
76795;SDS011;65745;50.278;18.192;2024-02-21T11:21:55;9.60;;;5.00;;
76795;SDS011;65745;50.278;18.192;2024-02-21T11:24:33;9.20;;;4.80;;
76795;SDS011;65745;50.278;18.192;2024-02-21T11:27:13;9.10;;;5.70;;
76795;SDS011;65745;50.278;18.192;2024-02-21T11:29:46;8.00;;;4.80;;
76795;SDS011;65745;50.278;18.192;2024-02-21T11:32:21;6.40;;;4.10;;
76795;SDS011;65745;50.278;18.192;2024-02-21T11:34:57;8.30;;;5.30;;
76795;SDS011;65745;50.278;18.192;2024-02-21T11:37:34;7.60;;;4.00;;
76795;SDS011;65745;50.278;18.192;2024-02-21T11:40:07;10.00;;;4.90;;
76795;SDS011;65745;50.278;18.192;2024-02-21T11:42:41;6.50;;;3.80;;
76795;SDS011;65745;50.278;18.192;2024-02-21T11:45:15;10.20;;;5.30;;
76795;SDS011;65745;50.278;18.192;2024-02-21T11:47:49;8.70;;;5.60;;
76795;SDS011;65745;50.278;18.192;2024-02-21T11:50:22;12.50;;;7.00;;
76795;SDS011;65745;50.278;18.192;2024-02-21T11:52:57;10.30;;;6.00;;
76795;SDS011;65745;50.278;18.192;2024-02-21T11:55:29;9.20;;;5.00;;
76795;SDS011;65745;50.278;18.192;2024-02-21T11:58:02;11.30;;;5.30;;
76795;SDS011;65745;50.278;18.192;2024-02-21T12:00:34;8.70;;;5.30;;
76795;SDS011;65745;50.278;18.192;2024-02-21T12:03:07;8.90;;;4.90;;
76795;SDS011;65745;50.278;18.192;2024-02-21T12:05:39;12.70;;;6.70;;
76795;SDS011;65745;50.278;18.192;2024-02-21T12:08:13;12.90;;;6.40;;
76795;SDS011;65745;50.278;18.192;2024-02-21T12:14:02;11.00;;;6.20;;
76795;SDS011;65745;50.278;18.192;2024-02-21T12:16:35;10.00;;;5.40;;
76795;SDS011;65745;50.278;18.192;2024-02-21T12:19:08;8.90;;;6.30;;
76795;SDS011;65745;50.278;18.192;2024-02-21T12:21:42;11.30;;;5.90;;
76795;SDS011;65745;50.278;18.192;2024-02-21T12:24:15;9.30;;;5.40;;
76795;SDS011;65745;50.278;18.192;2024-02-21T12:26:49;11.60;;;5.70;;
76795;SDS011;65745;50.278;18.192;2024-02-21T12:29:22;12.00;;;6.90;;
76795;SDS011;65745;50.278;18.192;2024-02-21T12:31:55;14.00;;;6.90;;
76795;SDS011;65745;50.278;18.192;2024-02-21T12:34:27;10.60;;;6.30;;
76795;SDS011;65745;50.278;18.192;2024-02-21T12:37:16;12.20;;;6.40;;
76795;SDS011;65745;50.278;18.192;2024-02-21T12:39:50;12.70;;;5.80;;
76795;SDS011;65745;50.278;18.192;2024-02-21T12:42:22;13.20;;;7.30;;
76795;SDS011;65745;50.278;18.192;2024-02-21T12:44:54;12.80;;;7.20;;
76795;SDS011;65745;50.278;18.192;2024-02-21T12:47:27;9.60;;;6.10;;
76795;SDS011;65745;50.278;18.192;2024-02-21T12:49:59;11.70;;;6.20;;
76795;SDS011;65745;50.278;18.192;2024-02-21T12:52:36;10.50;;;6.40;;
76795;SDS011;65745;50.278;18.192;2024-02-21T12:55:09;10.60;;;7.30;;
76795;SDS011;65745;50.278;18.192;2024-02-21T12:57:42;12.70;;;8.40;;
76795;SDS011;65745;50.278;18.192;2024-02-21T13:00:16;11.40;;;7.00;;
76795;SDS011;65745;50.278;18.192;2024-02-21T13:02:50;10.60;;;6.80;;
76795;SDS011;65745;50.278;18.192;2024-02-21T13:05:22;9.20;;;4.90;;
76795;SDS011;65745;50.278;18.192;2024-02-21T13:07:54;7.90;;;5.30;;
76795;SDS011;65745;50.278;18.192;2024-02-21T13:10:27;13.30;;;7.20;;
76795;SDS011;65745;50.278;18.192;2024-02-21T13:12:59;7.80;;;5.90;;
76795;SDS011;65745;50.278;18.192;2024-02-21T13:15:31;7.40;;;5.00;;
76795;SDS011;65745;50.278;18.192;2024-02-21T13:18:04;9.30;;;5.60;;
76795;SDS011;65745;50.278;18.192;2024-02-21T13:20:36;8.30;;;5.20;;
76795;SDS011;65745;50.278;18.192;2024-02-21T13:23:23;8.40;;;5.60;;
76795;SDS011;65745;50.278;18.192;2024-02-21T13:25:55;10.00;;;5.40;;
76795;SDS011;65745;50.278;18.192;2024-02-21T13:28:28;10.30;;;5.20;;
76795;SDS011;65745;50.278;18.192;2024-02-21T13:31:00;8.20;;;5.70;;
76795;SDS011;65745;50.278;18.192;2024-02-21T13:33:32;15.20;;;6.90;;
76795;SDS011;65745;50.278;18.192;2024-02-21T13:36:06;9.10;;;5.20;;
76795;SDS011;65745;50.278;18.192;2024-02-21T13:38:39;10.10;;;5.70;;
76795;SDS011;65745;50.278;18.192;2024-02-21T13:41:11;11.40;;;6.70;;
76795;SDS011;65745;50.278;18.192;2024-02-21T13:43:44;9.20;;;6.70;;
76795;SDS011;65745;50.278;18.192;2024-02-21T13:46:17;8.70;;;5.30;;
76795;SDS011;65745;50.278;18.192;2024-02-21T13:48:49;8.40;;;6.10;;
76795;SDS011;65745;50.278;18.192;2024-02-21T13:51:27;8.30;;;5.80;;
76795;SDS011;65745;50.278;18.192;2024-02-21T13:53:59;9.00;;;5.60;;
76795;SDS011;65745;50.278;18.192;2024-02-21T13:56:32;6.90;;;4.60;;
76795;SDS011;65745;50.278;18.192;2024-02-21T13:59:04;12.60;;;6.30;;
76795;SDS011;65745;50.278;18.192;2024-02-21T14:01:37;8.80;;;5.70;;
76795;SDS011;65745;50.278;18.192;2024-02-21T14:04:10;6.50;;;5.00;;
76795;SDS011;65745;50.278;18.192;2024-02-21T14:06:42;9.10;;;5.70;;
76795;SDS011;65745;50.278;18.192;2024-02-21T14:09:14;8.70;;;5.60;;
76795;SDS011;65745;50.278;18.192;2024-02-21T14:11:46;9.80;;;5.70;;
76795;SDS011;65745;50.278;18.192;2024-02-21T14:14:19;10.00;;;5.40;;
76795;SDS011;65745;50.278;18.192;2024-02-21T14:16:51;8.50;;;6.00;;
76795;SDS011;65745;50.278;18.192;2024-02-21T14:19:25;10.20;;;5.90;;
76795;SDS011;65745;50.278;18.192;2024-02-21T14:21:58;7.80;;;4.40;;
76795;SDS011;65745;50.278;18.192;2024-02-21T14:24:31;10.90;;;6.90;;
76795;SDS011;65745;50.278;18.192;2024-02-21T14:27:04;8.10;;;5.20;;
76795;SDS011;65745;50.278;18.192;2024-02-21T14:29:38;8.70;;;5.30;;
76795;SDS011;65745;50.278;18.192;2024-02-21T14:32:10;9.40;;;5.30;;
76795;SDS011;65745;50.278;18.192;2024-02-21T14:34:44;8.70;;;5.40;;
76795;SDS011;65745;50.278;18.192;2024-02-21T14:37:18;9.90;;;6.30;;
76795;SDS011;65745;50.278;18.192;2024-02-21T14:39:51;9.50;;;5.00;;
76795;SDS011;65745;50.278;18.192;2024-02-21T14:42:23;9.60;;;5.60;;
76795;SDS011;65745;50.278;18.192;2024-02-21T14:44:55;8.80;;;5.20;;
76795;SDS011;65745;50.278;18.192;2024-02-21T14:47:34;10.20;;;6.00;;
76795;SDS011;65745;50.278;18.192;2024-02-21T14:50:07;7.00;;;4.80;;
76795;SDS011;65745;50.278;18.192;2024-02-21T14:52:40;8.40;;;4.50;;
76795;SDS011;65745;50.278;18.192;2024-02-21T14:55:14;11.30;;;6.30;;
76795;SDS011;65745;50.278;18.192;2024-02-21T14:57:47;10.20;;;6.10;;
76795;SDS011;65745;50.278;18.192;2024-02-21T15:00:19;9.60;;;5.60;;
76795;SDS011;65745;50.278;18.192;2024-02-21T15:02:59;7.20;;;5.10;;
76795;SDS011;65745;50.278;18.192;2024-02-21T15:05:32;13.40;;;7.70;;
76795;SDS011;65745;50.278;18.192;2024-02-21T15:08:05;8.80;;;5.90;;